Time;durP1;ratioP1;P1;durP2;ratioP2;P2;SDS_P1;SDS_P2;PMS_P1;PMS_P2;Temp;Humidity;BMP_temperature;BMP_pressure;BME280_temperature;BME280_humidity;BME280_pressure;Samples;Min_cycle;Max_cycle;Signal;HPM_P1;HPM_P2
2022/10/01 00:02:07;;;;;;;13.00;5.20;;;16.40;99.90;;;16.65;67.47;95384.31;5024738;28;20554;-56
2022/10/01 00:04:36;;;;;;;21.10;5.27;;;16.30;99.90;;;16.59;67.34;95370.84;5026634;28;20500;-55
2022/10/01 00:07:03;;;;;;;13.60;5.60;;;16.30;99.90;;;16.56;67.72;95382.63;5027414;28;20549;-54
2022/10/01 00:09:31;;;;;;;8.90;5.70;;;16.20;99.90;;;16.54;67.73;95375.81;5027386;28;20468;-56
2022/10/01 00:11:59;;;;;;;7.47;5.40;;;16.20;99.90;;;16.55;67.81;95380.97;5027254;28;20487;-56
2022/10/01 00:14:27;;;;;;;20.50;6.20;;;16.20;99.90;;;16.56;67.93;95379.13;5025186;28;20531;-55
2022/10/01 00:16:55;;;;;;;9.30;5.77;;;16.20;99.90;;;16.57;68.03;95375.50;5027029;28;20536;-57
2022/10/01 00:19:23;;;;;;;10.23;5.23;;;16.20;99.90;;;16.58;67.94;95367.34;5026220;28;21241;-55
2022/10/01 00:21:50;;;;;;;10.60;5.53;;;16.20;99.90;;;16.58;68.43;95370.00;5028458;28;20662;-55
2022/10/01 00:24:17;;;;;;;11.00;5.70;;;16.20;99.90;;;16.55;67.97;95373.00;5024979;28;20495;-57
2022/10/01 00:26:46;;;;;;;8.83;5.10;;;16.30;99.90;;;16.51;68.10;95370.84;5027313;28;20514;-59
2022/10/01 00:29:14;;;;;;;6.70;5.90;;;16.20;99.90;;;16.47;68.27;95360.53;5025765;28;20915;-55
2022/10/01 00:31:41;;;;;;;18.23;5.20;;;16.20;99.90;;;16.46;68.18;95368.66;5025717;28;21059;-56
2022/10/01 00:34:11;;;;;;;11.97;5.50;;;16.20;99.90;;;16.46;68.21;95366.00;5025690;28;20536;-57
2022/10/01 00:36:38;;;;;;;17.77;5.63;;;16.10;99.90;;;16.44;68.35;95355.56;5026878;28;20884;-56
2022/10/01 00:39:06;;;;;;;12.67;4.43;;;16.10;99.90;;;16.44;68.88;95365.34;5026571;28;20476;-57
2022/10/01 00:41:34;;;;;;;5.00;4.50;;;16.10;99.90;;;16.41;68.14;95363.84;5026150;28;20526;-55
2022/10/01 00:44:03;;;;;;;7.70;5.50;;;16.10;99.90;;;16.39;68.08;95362.34;5024946;28;20492;-55
2022/10/01 00:46:37;;;;;;;10.50;5.77;;;16.10;99.90;;;16.38;68.48;95363.34;5024932;28;20568;-56
2022/10/01 00:49:06;;;;;;;5.53;4.87;;;16.10;99.90;;;16.35;68.36;95353.88;5025741;28;20946;-56
2022/10/01 00:51:41;;;;;;;6.17;4.40;;;16.00;99.90;;;16.34;68.64;95354.06;5025662;28;20574;-56
2022/10/01 00:54:10;;;;;;;13.10;4.80;;;16.00;99.90;;;16.33;68.51;95355.03;5026440;28;20476;-56
2022/10/01 00:56:38;;;;;;;21.30;5.67;;;16.00;99.90;;;16.32;68.86;95356.88;5026250;28;20449;-56
2022/10/01 00:59:05;;;;;;;20.73;5.03;;;16.00;99.90;;;16.33;68.69;95361.19;5026246;28;20494;-56
2022/10/01 01:01:33;;;;;;;16.43;5.63;;;16.00;99.90;;;16.31;68.96;95366.66;5025915;28;20457;-56
2022/10/01 01:04:00;;;;;;;11.40;4.77;;;16.00;99.90;;;16.29;68.79;95371.28;5022126;28;20515;-53
2022/10/01 01:06:27;;;;;;;11.43;5.50;;;16.00;99.90;;;16.28;68.78;95366.13;5022609;28;20809;-53
2022/10/01 01:08:56;;;;;;;10.40;5.80;;;15.90;99.90;;;16.29;69.08;95367.81;5024443;28;20574;-56
2022/10/01 01:11:29;;;;;;;9.10;4.57;;;16.00;99.90;;;16.29;69.03;95357.19;5023153;28;20654;-56
2022/10/01 01:14:01;;;;;;;12.87;4.47;;;15.90;99.90;;;16.29;68.83;95359.84;5026461;28;20520;-55
2022/10/01 01:16:32;;;;;;;9.63;4.90;;;16.00;99.90;;;16.27;68.83;95349.38;5026486;28;20849;-57
2022/10/01 01:19:02;;;;;;;8.20;3.87;;;16.00;99.90;;;16.27;68.92;95345.91;5024188;28;20997;-57
2022/10/01 01:21:30;;;;;;;9.67;4.93;;;15.90;99.90;;;16.25;68.53;95350.53;5026917;28;20492;-54
2022/10/01 01:24:35;;;;;;;6.30;4.90;;;15.90;99.90;;;16.16;69.13;95340.91;5026070;28;20492;-55
2022/10/01 01:27:15;;;;;;;8.60;4.20;;;15.90;99.90;;;16.17;68.49;95339.91;5026176;28;20910;-56
2022/10/01 01:29:48;;;;;;;13.63;4.13;;;15.90;99.90;;;16.15;68.73;95349.88;5025160;28;20480;-56
2022/10/01 01:32:18;;;;;;;4.67;4.00;;;15.80;99.90;;;16.13;68.74;95350.03;5024149;28;20456;-56
2022/10/01 01:34:47;;;;;;;8.03;4.40;;;15.80;99.90;;;16.10;68.60;95348.53;5025868;28;20503;-54
2022/10/01 01:37:16;;;;;;;3.70;3.40;;;15.80;99.90;;;16.07;68.73;95353.34;5026753;28;20532;-54
2022/10/01 01:39:45;;;;;;;16.47;4.27;;;15.80;99.90;;;16.03;68.73;95359.94;5026388;28;20473;-57
2022/10/01 01:42:18;;;;;;;6.40;3.90;;;15.70;99.90;;;15.99;68.79;95359.44;5025981;28;20933;-55
2022/10/01 01:44:47;;;;;;;7.23;4.20;;;15.70;99.90;;;15.97;68.62;95368.56;5023782;28;20503;-57
2022/10/01 01:47:15;;;;;;;4.23;3.60;;;15.70;99.90;;;15.93;68.77;95358.25;5023605;28;20978;-55
2022/10/01 01:49:42;;;;;;;6.00;3.10;;;15.70;99.90;;;15.93;68.97;95360.09;5023173;28;20499;-56
2022/10/01 01:52:12;;;;;;;7.27;5.60;;;15.60;99.90;;;15.93;69.00;95365.41;5024792;28;20449;-54
2022/10/01 01:54:39;;;;;;;14.10;3.90;;;15.70;99.90;;;15.94;69.19;95356.44;5028381;28;20465;-54
2022/10/01 01:57:07;;;;;;;14.77;4.20;;;15.60;99.90;;;15.93;68.90;95350.31;5027880;28;20463;-56
2022/10/01 01:59:35;;;;;;;5.10;3.40;;;15.60;99.90;;;15.89;69.04;95366.69;5028507;28;20499;-56
2022/10/01 02:02:06;;;;;;;4.13;3.60;;;15.60;99.90;;;15.86;68.99;95367.84;5028216;28;20798;-56
2022/10/01 02:04:38;;;;;;;21.40;4.20;;;15.60;99.90;;;15.85;69.17;95373.31;5033207;28;20508;-56
2022/10/01 02:07:45;;;;;;;5.27;3.70;;;15.60;99.90;;;15.83;69.26;95372.66;5032739;28;20440;-56
2022/10/01 02:10:22;;;;;;;17.80;3.70;;;15.60;99.90;;;15.81;69.15;95364.03;5030592;28;20472;-57
2022/10/01 02:13:03;;;;;;;4.83;4.27;;;15.50;99.90;;;15.80;69.22;95373.81;5033927;28;20452;-56
2022/10/01 02:15:36;;;;;;;7.03;3.70;;;15.50;99.90;;;15.74;69.26;95369.94;5031684;28;20456;-56
2022/10/01 02:18:10;;;;;;;3.70;3.40;;;15.40;99.90;;;15.71;69.61;95378.22;5029686;28;20479;-56
2022/10/01 02:20:44;;;;;;;5.73;3.90;;;15.40;99.90;;;15.71;69.61;95380.88;5033103;28;20473;-57
2022/10/01 02:23:16;;;;;;;5.17;3.73;;;15.40;99.90;;;15.71;69.45;95380.03;5026815;28;20460;-57
2022/10/01 02:25:46;;;;;;;5.27;4.07;;;15.40;99.90;;;15.65;70.02;95381.50;5025596;28;21064;-55
2022/10/01 02:28:16;;;;;;;7.03;4.60;;;15.40;99.90;;;15.65;69.51;95386.81;5023372;28;20515;-55
2022/10/01 02:30:44;;;;;;;6.20;4.40;;;15.40;99.90;;;15.66;69.81;95396.44;5023995;28;20542;-56
2022/10/01 02:33:14;;;;;;;6.80;4.33;;;15.40;99.90;;;15.68;69.80;95402.41;5024428;28;20544;-54
2022/10/01 02:35:42;;;;;;;9.27;3.70;;;15.40;99.90;;;15.69;69.80;95401.41;5025686;28;20488;-57
2022/10/01 02:38:10;;;;;;;4.57;3.70;;;15.40;99.90;;;15.71;70.07;95399.44;5023713;28;20480;-53
2022/10/01 02:40:39;;;;;;;5.57;3.80;;;15.40;99.90;;;15.70;69.97;95405.72;5023630;28;20960;-55
2022/10/01 02:43:11;;;;;;;16.23;4.23;;;15.40;99.90;;;15.73;70.00;95393.97;5025429;28;20947;-54
2022/10/01 02:45:39;;;;;;;5.43;3.80;;;15.40;99.90;;;15.75;70.11;95403.44;5029225;28;20480;-58
2022/10/01 02:48:09;;;;;;;4.00;3.70;;;15.40;99.90;;;15.80;69.87;95404.78;5031014;28;20468;-55
2022/10/01 02:50:47;;;;;;;12.67;4.10;;;15.50;99.90;;;15.82;70.25;95401.00;5031447;28;20548;-57
2022/10/01 02:53:18;;;;;;;6.00;4.33;;;15.50;99.90;;;15.86;69.98;95398.84;5028766;28;20460;-55
2022/10/01 02:55:47;;;;;;;6.93;3.30;;;15.50;99.90;;;15.91;69.83;95404.50;5025287;28;20489;-58
2022/10/01 02:58:13;;;;;;;9.27;4.60;;;15.60;99.90;;;15.94;69.55;95396.22;5026752;28;20457;-54
2022/10/01 03:00:41;;;;;;;3.87;3.57;;;15.60;99.90;;;15.95;69.39;95398.72;5026740;28;21024;-56
2022/10/01 03:03:09;;;;;;;4.30;3.87;;;15.70;99.90;;;15.94;69.42;95391.78;5027640;28;20556;-55
2022/10/01 03:05:37;;;;;;;4.27;3.80;;;15.60;99.90;;;15.93;69.33;95395.41;5026074;28;20568;-53
2022/10/01 03:08:05;;;;;;;6.90;4.60;;;15.60;99.90;;;15.89;69.29;95395.88;5024728;28;20840;-56
2022/10/01 03:10:32;;;;;;;16.13;5.13;;;15.60;99.90;;;15.85;69.30;95391.88;5018720;28;20606;-56
2022/10/01 03:13:00;;;;;;;21.50;4.90;;;15.60;99.90;;;15.81;69.06;95393.19;5021732;28;21000;-55
2022/10/01 03:15:28;;;;;;;8.10;3.23;;;15.50;99.90;;;15.77;69.13;95398.81;5024509;28;20480;-52
2022/10/01 03:17:55;;;;;;;5.93;4.17;;;15.50;99.90;;;15.73;69.38;95405.41;5028666;28;20487;-57
2022/10/01 03:20:22;;;;;;;13.53;3.97;;;15.50;99.90;;;15.74;69.29;95412.38;5028709;28;20538;-54
2022/10/01 03:22:51;;;;;;;7.80;3.50;;;15.50;99.90;;;15.74;69.99;95417.69;5030098;28;20463;-56
2022/10/01 03:25:18;;;;;;;4.93;3.97;;;15.50;99.90;;;15.75;69.46;95413.19;5034036;28;20496;-55
2022/10/01 03:27:46;;;;;;;8.83;3.83;;;15.50;99.90;;;15.74;69.39;95422.16;5028235;28;20977;-57
2022/10/01 03:30:14;;;;;;;4.13;3.40;;;15.50;99.90;;;15.75;69.55;95424.66;5033965;28;20476;-55
2022/10/01 03:32:42;;;;;;;5.37;3.53;;;15.50;99.90;;;15.73;69.67;95416.00;5032314;28;20526;-56
2022/10/01 03:35:10;;;;;;;4.37;2.77;;;15.50;99.90;;;15.76;69.82;95430.78;5028097;28;20548;-56
2022/10/01 03:37:37;;;;;;;4.03;3.50;;;15.50;99.90;;;15.77;69.29;95414.75;5028071;28;20522;-56
2022/10/01 03:40:07;;;;;;;7.03;3.90;;;15.50;99.90;;;15.77;69.31;95411.25;5028302;28;20539;-58
2022/10/01 03:42:34;;;;;;;4.27;3.80;;;15.50;99.90;;;15.75;69.43;95411.41;5026034;28;20572;-58
2022/10/01 03:45:02;;;;;;;4.90;3.10;;;15.50;99.90;;;15.73;69.48;95416.00;5024255;28;20493;-57
2022/10/01 03:47:29;;;;;;;6.20;3.57;;;15.50;99.90;;;15.75;69.45;95419.34;5027242;28;20621;-53
2022/10/01 03:49:56;;;;;;;4.37;3.30;;;15.50;99.90;;;15.76;69.80;95397.13;5027336;28;20511;-58
2022/10/01 03:52:23;;;;;;;3.37;3.07;;;15.50;99.90;;;15.76;69.56;95383.03;5026257;28;20953;-55
2022/10/01 03:54:51;;;;;;;7.90;3.90;;;15.50;99.90;;;15.76;69.55;95391.81;5027025;28;20489;-57
2022/10/01 03:57:19;;;;;;;21.27;4.57;;;15.50;99.90;;;15.74;69.42;95393.81;5026862;28;20489;-57
2022/10/01 03:59:47;;;;;;;12.63;3.87;;;15.40;99.90;;;15.72;69.74;95393.16;5023111;28;21106;-55
2022/10/01 04:02:14;;;;;;;7.50;4.40;;;15.40;99.90;;;15.69;69.71;95385.50;5026928;28;20460;-53
2022/10/01 04:04:41;;;;;;;7.73;4.20;;;15.40;99.90;;;15.67;69.64;95373.38;5027828;28;20568;-53
2022/10/01 04:07:08;;;;;;;12.60;4.10;;;15.40;99.90;;;15.56;69.69;95371.84;5025692;28;20461;-56
2022/10/01 04:09:36;;;;;;;6.07;4.30;;;15.30;99.90;;;15.45;69.93;95364.16;5025355;28;20491;-58
2022/10/01 04:12:03;;;;;;;11.63;4.73;;;15.20;99.90;;;15.36;69.71;95385.31;5027379;28;20457;-54
2022/10/01 04:14:32;;;;;;;13.30;5.50;;;15.20;99.90;;;15.28;70.30;95395.88;5026001;28;20477;-54
2022/10/01 04:16:59;;;;;;;5.70;5.10;;;15.10;99.90;;;15.25;70.82;95406.78;5027006;28;20487;-54
2022/10/01 04:19:27;;;;;;;11.07;4.57;;;15.00;99.90;;;15.24;70.99;95413.06;5027369;28;20500;-57
2022/10/01 04:21:54;;;;;;;8.63;4.37;;;15.00;99.90;;;15.23;71.15;95414.06;5024260;28;20464;-55
2022/10/01 04:24:21;;;;;;;4.53;4.10;;;15.00;99.90;;;15.24;71.46;95415.72;5025741;28;20559;-57
2022/10/01 04:26:50;;;;;;;6.83;4.63;;;15.00;99.90;;;15.24;71.17;95403.31;5025279;28;20992;-57
2022/10/01 04:29:17;;;;;;;10.80;5.13;;;15.00;99.90;;;15.28;71.06;95397.69;5026877;28;20485;-59
2022/10/01 04:31:46;;;;;;;9.87;4.27;;;15.00;99.90;;;15.28;71.21;95387.09;5024573;28;20469;-57
2022/10/01 04:34:13;;;;;;;15.37;4.43;;;15.00;99.90;;;15.30;70.86;95375.34;5025241;28;20480;-56
2022/10/01 04:36:40;;;;;;;12.67;4.83;;;15.00;99.90;;;15.32;71.11;95381.34;5026156;28;20970;-56
2022/10/01 04:39:08;;;;;;;19.43;4.97;;;15.00;99.90;;;15.35;71.43;95369.56;5026984;28;20481;-56
2022/10/01 04:41:35;;;;;;;9.17;4.63;;;15.00;99.90;;;15.38;71.30;95367.44;5025433;28;20579;-58
2022/10/01 04:44:03;;;;;;;7.87;4.90;;;15.10;99.90;;;15.42;71.23;95392.63;5025780;28;20457;-55
2022/10/01 04:46:30;;;;;;;14.30;4.67;;;15.10;99.90;;;15.47;71.24;95400.13;5022608;28;20453;-54
2022/10/01 04:48:59;;;;;;;12.37;5.60;;;15.20;99.90;;;15.52;70.91;95415.56;5025662;28;21547;-53
2022/10/01 04:51:27;;;;;;;10.37;4.47;;;15.20;99.90;;;15.57;71.07;95414.09;5026809;28;20497;-55
2022/10/01 04:53:54;;;;;;;5.47;4.83;;;15.30;99.90;;;15.62;70.87;95418.94;5022798;28;20461;-57
2022/10/01 04:56:21;;;;;;;7.60;5.10;;;15.30;99.90;;;15.67;70.69;95416.63;5027036;28;20457;-55
2022/10/01 04:58:48;;;;;;;15.10;5.30;;;15.40;99.90;;;15.73;70.59;95412.53;5026565;28;21134;-57
2022/10/01 05:01:16;;;;;;;27.70;5.90;;;15.40;99.90;;;15.81;70.56;95425.03;5023349;28;20995;-54
2022/10/01 05:03:46;;;;;;;7.00;4.63;;;15.50;99.90;;;15.89;70.61;95419.75;5024383;28;20452;-55
2022/10/01 05:06:15;;;;;;;12.80;5.73;;;15.50;99.90;;;15.94;70.22;95436.88;5025255;28;20480;-54
2022/10/01 05:08:42;;;;;;;11.90;5.87;;;15.60;99.90;;;16.00;70.10;95439.88;5022528;28;20460;-55
2022/10/01 05:11:09;;;;;;;14.73;5.73;;;15.70;99.90;;;16.05;70.30;95445.53;5025228;28;20832;-54
2022/10/01 05:13:36;;;;;;;8.90;5.63;;;15.70;99.90;;;16.09;70.22;95441.56;5028630;28;20522;-54
2022/10/01 05:16:04;;;;;;;9.07;6.10;;;15.80;99.90;;;16.13;70.32;95443.75;5025840;28;21047;-54
2022/10/01 05:18:31;;;;;;;8.80;6.17;;;15.80;99.90;;;16.20;69.90;95440.44;5029319;28;20891;-55
2022/10/01 05:20:58;;;;;;;16.23;5.70;;;15.90;99.90;;;16.28;70.12;95437.81;5025965;28;21048;-54
2022/10/01 05:23:27;;;;;;;7.10;5.67;;;15.90;99.90;;;16.34;69.97;95437.16;5026116;28;21022;-53
2022/10/01 05:25:54;;;;;;;19.33;6.17;;;16.00;99.90;;;16.43;69.47;95427.41;5026336;28;20496;-55
2022/10/01 05:28:21;;;;;;;14.17;6.70;;;16.10;99.90;;;16.51;69.91;95431.91;5025467;28;20464;-56
2022/10/01 05:30:49;;;;;;;18.13;6.50;;;16.10;99.90;;;16.61;69.40;95437.91;5023513;28;20911;-56
2022/10/01 05:33:17;;;;;;;15.87;6.60;;;16.30;99.90;;;16.71;69.31;95425.28;5024863;28;20603;-57
2022/10/01 05:35:44;;;;;;;9.97;5.87;;;16.30;99.90;;;16.81;69.21;95446.41;5025345;28;20481;-53
2022/10/01 05:38:11;;;;;;;11.93;6.40;;;16.40;99.90;;;16.96;69.10;95443.94;5026658;28;20540;-56
2022/10/01 05:40:40;;;;;;;16.37;6.20;;;16.60;99.90;;;17.10;68.76;95435.34;5023612;28;20481;-56
2022/10/01 05:43:07;;;;;;;9.50;6.20;;;16.70;99.90;;;17.27;67.73;95425.50;5026808;28;20452;-53
2022/10/01 05:45:34;;;;;;;9.10;6.10;;;16.90;99.90;;;17.42;67.76;95414.22;5024299;28;20500;-55
2022/10/01 05:48:03;;;;;;;9.87;6.53;;;17.00;99.90;;;17.57;67.76;95404.53;5024051;28;20483;-55
2022/10/01 05:50:31;;;;;;;8.40;5.63;;;17.10;99.90;;;17.79;66.83;95402.16;5024975;28;20902;-55
2022/10/01 05:52:59;;;;;;;13.80;6.17;;;17.30;99.90;;;17.96;66.67;95413.59;5025288;28;20445;-57
2022/10/01 05:55:30;;;;;;;24.97;6.70;;;17.50;99.90;;;18.06;66.25;95392.91;5022812;28;20473;-57
2022/10/01 05:58:01;;;;;;;8.33;4.80;;;17.60;99.90;;;18.14;65.83;95408.88;5025771;28;20539;-54
2022/10/01 06:00:28;;;;;;;10.47;6.23;;;17.70;99.90;;;18.36;65.30;95422.41;5024964;28;20476;-55
2022/10/01 06:02:56;;;;;;;15.67;5.23;;;17.90;99.90;;;18.61;65.05;95434.56;5022232;28;20547;-57
2022/10/01 06:05:23;;;;;;;16.57;5.87;;;18.10;99.90;;;18.91;64.80;95440.06;5025896;28;20504;-58
2022/10/01 06:07:52;;;;;;;13.10;4.77;;;18.40;99.90;;;19.25;63.41;95444.13;5025750;28;20460;-57
2022/10/01 06:10:19;;;;;;;15.03;5.27;;;18.70;99.90;;;19.57;62.94;95442.19;5025556;28;20465;-57
2022/10/01 06:12:47;;;;;;;15.13;5.20;;;19.00;99.90;;;19.93;62.53;95478.91;5026040;28;20471;-56
2022/10/01 06:15:16;;;;;;;11.10;5.97;;;19.30;99.90;;;20.27;61.36;95476.72;5024762;28;20589;-57
2022/10/01 06:17:44;;;;;;;8.87;6.13;;;19.70;99.90;;;20.58;60.76;95489.84;5026930;28;20857;-58
2022/10/01 06:20:13;;;;;;;10.40;6.20;;;20.00;99.60;;;20.68;59.67;95466.38;5025808;28;20839;-56
2022/10/01 06:22:41;;;;;;;8.90;6.20;;;20.10;98.80;;;20.63;59.39;95476.75;5025519;28;20449;-57
2022/10/01 06:25:10;;;;;;;11.33;5.97;;;20.10;98.30;;;20.56;59.72;95497.22;5025393;28;20578;-54
2022/10/01 06:27:37;;;;;;;12.07;5.90;;;20.10;98.20;;;20.75;59.93;95479.78;5025037;28;21185;-57
2022/10/01 06:30:06;;;;;;;8.50;5.20;;;20.30;98.50;;;21.09;58.91;95494.34;5025206;28;20472;-59
2022/10/01 06:32:35;;;;;;;20.20;6.57;;;20.50;98.00;;;21.44;58.26;95476.59;5025110;28;20464;-58
2022/10/01 06:35:02;;;;;;;8.10;4.87;;;20.80;97.60;;;21.81;57.54;95463.94;5023802;28;20469;-55
2022/10/01 06:37:29;;;;;;;9.50;4.97;;;21.10;97.40;;;22.15;57.26;95458.78;5025001;28;20449;-57
2022/10/01 06:39:56;;;;;;;18.83;5.17;;;21.50;96.90;;;22.55;56.46;95459.81;5025396;28;20475;-54
2022/10/01 06:42:24;;;;;;;8.23;5.77;;;21.90;96.20;;;22.89;55.47;95439.31;5025375;28;20475;-57
2022/10/01 06:44:51;;;;;;;16.83;5.70;;;22.20;95.40;;;23.24;54.27;95460.66;5025146;28;20568;-56
2022/10/01 06:47:18;;;;;;;10.90;5.10;;;22.60;94.80;;;23.52;53.85;95448.91;5025593;28;20457;-56
2022/10/01 06:49:47;;;;;;;23.23;5.30;;;22.90;93.80;;;23.84;52.99;95435.69;5029407;28;20553;-56
2022/10/01 06:55:00;;;;;;;18.10;5.20;;;23.50;93.30;;;24.67;52.15;95456.59;5028004;28;20538;-57
2022/10/01 06:57:28;;;;;;;13.97;4.77;;;23.90;92.50;;;25.14;50.62;95447.44;5028659;28;20448;-56
2022/10/01 06:59:57;;;;;;;14.13;4.80;;;24.40;91.50;;;25.46;50.53;95447.47;5028401;28;20488;-58
2022/10/01 07:02:27;;;;;;;16.83;5.60;;;24.80;90.50;;;25.76;49.58;95442.22;5028474;28;20455;-57
2022/10/01 07:04:58;;;;;;;11.20;5.83;;;25.00;89.90;;;26.05;48.60;95446.13;5028711;28;20495;-54
2022/10/01 07:07:29;;;;;;;7.77;5.37;;;25.30;87.20;;;26.33;48.56;95462.88;5028281;28;20472;-53
2022/10/01 07:09:56;;;;;;;14.73;5.17;;;25.60;86.50;;;26.61;48.19;95471.25;5027701;28;20567;-57
2022/10/01 07:12:23;;;;;;;8.93;5.17;;;25.90;85.10;;;26.99;48.22;95491.78;5028138;28;20887;-55
2022/10/01 07:14:51;;;;;;;12.80;5.70;;;26.10;85.40;;;27.43;47.05;95494.31;5028247;28;20484;-54
2022/10/01 07:17:18;;;;;;;9.17;4.80;;;26.50;82.10;;;27.97;46.25;95493.53;5028050;28;20940;-58
2022/10/01 07:19:45;;;;;;;11.87;5.03;;;27.10;81.10;;;28.48;45.66;95494.69;5028533;28;20498;-56
2022/10/01 07:22:14;;;;;;;14.10;5.63;;;27.60;79.30;;;28.98;43.96;95501.44;5027418;28;20468;-59
2022/10/01 07:24:41;;;;;;;6.60;5.00;;;28.20;74.50;;;29.22;44.11;95485.97;5025890;28;20955;-56
2022/10/01 07:27:09;;;;;;;6.77;4.50;;;28.50;71.50;;;29.22;44.22;95461.56;5028066;28;20894;-56
2022/10/01 07:29:36;;;;;;;21.30;4.33;;;28.60;71.40;;;29.40;43.88;95468.66;5026376;28;20591;-57
2022/10/01 07:32:07;;;;;;;8.17;4.57;;;28.90;70.70;;;29.85;43.06;95461.56;5026177;28;20517;-56
2022/10/01 07:34:35;;;;;;;10.43;4.20;;;29.30;69.50;;;30.22;42.05;95442.06;5026968;28;20964;-56
2022/10/01 07:37:02;;;;;;;16.93;5.10;;;29.70;67.20;;;30.32;41.08;95442.19;5027859;28;20459;-59
2022/10/01 07:39:31;;;;;;;6.73;4.70;;;29.90;64.60;;;30.36;40.91;95431.66;5025095;28;20315;-58
2022/10/01 07:41:58;;;;;;;7.07;5.10;;;30.00;63.20;;;30.37;40.54;95438.72;5027669;28;20455;-54
2022/10/01 07:44:26;;;;;;;7.53;4.70;;;30.10;60.60;;;30.25;40.60;95441.56;5027849;28;20263;-55
2022/10/01 07:46:53;;;;;;;14.30;5.13;;;30.00;61.70;;;30.21;40.83;95441.25;5027556;28;20238;-58
2022/10/01 07:49:21;;;;;;;7.20;5.03;;;29.90;61.70;;;30.14;41.12;95440.59;5028089;28;20229;-56
2022/10/01 07:51:48;;;;;;;11.20;4.47;;;29.80;61.20;;;29.87;40.48;95451.31;5028655;28;20267;-55
2022/10/01 07:54:15;;;;;;;14.37;5.13;;;29.60;59.80;;;29.37;40.10;95449.34;5027941;28;20312;-59
2022/10/01 07:56:44;;;;;;;12.23;5.40;;;29.30;59.30;;;28.90;40.71;95459.31;5027879;28;20276;-57
2022/10/01 07:59:12;;;;;;;13.60;6.20;;;28.80;59.10;;;28.44;41.74;95458.31;5027325;28;20237;-55
2022/10/01 08:01:39;;;;;;;7.63;5.03;;;28.30;59.90;;;27.88;41.54;95447.84;5018948;28;20631;-59
2022/10/01 08:06:48;;;;;;;12.97;6.20;;;27.20;61.40;;;26.75;43.54;95423.38;5021579;28;20591;-55
2022/10/01 08:09:16;;;;;;;10.00;6.93;;;26.70;62.50;;;26.29;44.32;95436.34;5025149;28;21103;-56
2022/10/01 08:11:47;;;;;;;12.50;5.80;;;26.10;63.90;;;25.88;44.83;95426.16;5022484;28;20452;-54
2022/10/01 08:14:15;;;;;;;12.43;6.10;;;25.70;65.40;;;25.51;45.49;95412.59;5023679;28;20551;-59
2022/10/01 08:16:42;;;;;;;17.60;6.07;;;25.30;66.30;;;25.19;46.06;95407.22;5023333;28;20580;-59
2022/10/01 08:19:09;;;;;;;10.53;6.77;;;24.90;67.60;;;24.87;46.50;95418.00;5021432;28;20468;-55
2022/10/01 08:21:36;;;;;;;16.10;7.20;;;24.50;68.50;;;24.51;47.59;95419.41;5023831;28;20460;-56
2022/10/01 08:24:04;;;;;;;14.30;6.37;;;24.30;69.50;;;24.25;47.79;95410.38;5023459;28;20472;-54
2022/10/01 08:26:31;;;;;;;22.67;6.30;;;24.00;70.70;;;24.08;48.18;95425.34;5022999;28;20480;-57
2022/10/01 08:29:00;;;;;;;19.67;6.07;;;23.70;71.50;;;23.97;48.82;95424.13;5023704;28;20475;-58
2022/10/01 08:31:27;;;;;;;15.67;5.83;;;23.60;72.70;;;23.83;48.92;95419.75;5023250;28;20900;-58
2022/10/01 08:33:55;;;;;;;14.23;5.40;;;23.50;72.60;;;23.68;48.79;95420.81;5023905;28;21003;-59
2022/10/01 08:36:22;;;;;;;8.70;5.87;;;23.30;73.10;;;23.56;49.25;95407.22;5022680;28;20919;-55
2022/10/01 08:38:50;;;;;;;22.10;10.70;;;23.20;73.90;;;23.48;49.63;95402.03;5024096;28;20932;-58
2022/10/01 08:41:27;;;;;;;15.60;6.60;;;23.10;75.00;;;23.43;49.63;95407.19;5022649;28;20452;-60
2022/10/01 08:43:55;;;;;;;7.93;6.03;;;23.00;76.40;;;23.33;50.01;95396.88;5024202;28;20904;-57
2022/10/01 08:46:25;;;;;;;21.33;6.20;;;22.90;76.00;;;23.20;50.16;95400.38;5022804;28;20488;-54
2022/10/01 08:48:57;;;;;;;19.37;7.03;;;22.80;76.20;;;23.13;50.81;95391.50;5023339;28;20563;-55
2022/10/01 08:51:28;;;;;;;12.17;5.77;;;22.70;78.80;;;23.10;50.98;95389.25;5024149;28;20480;-53
2022/10/01 08:53:57;;;;;;;16.43;4.93;;;22.60;78.90;;;23.06;51.34;95375.34;5023053;28;20480;-58
2022/10/01 08:56:29;;;;;;;6.80;3.10;;;22.60;79.30;;;23.07;50.79;95389.63;5023049;28;20539;-57
2022/10/01 08:58:58;;;;;;;12.00;4.10;;;22.60;78.30;;;23.04;50.69;95408.81;5023946;28;20542;-62
2022/10/01 09:01:28;;;;;;;13.10;4.63;;;22.60;79.40;;;23.02;51.32;95409.00;5022264;28;20839;-56
2022/10/01 09:03:55;;;;;;;6.80;4.67;;;22.60;79.80;;;22.92;51.49;95409.38;5026183;28;20440;-58
2022/10/01 09:06:24;;;;;;;20.10;7.40;;;22.50;79.80;;;22.84;51.32;95432.91;5026250;28;21020;-56
2022/10/01 09:09:17;;;;;;;16.63;7.17;;;22.40;80.60;;;22.72;52.53;95432.66;5026473;28;20448;-58
2022/10/01 09:12:05;;;;;;;14.80;5.80;;;22.30;82.10;;;22.57;53.10;95473.03;5028332;28;20453;-59
2022/10/01 09:15:04;;;;;;;17.90;5.33;;;22.20;83.30;;;22.39;54.29;95454.81;5026524;28;20973;-59
2022/10/01 09:17:49;;;;;;;10.30;5.50;;;22.00;84.60;;;22.25;53.86;95466.47;5023017;28;20453;-56
2022/10/01 09:20:22;;;;;;;12.53;4.50;;;21.90;85.20;;;22.14;54.65;95479.38;5025113;28;20546;-58
2022/10/01 09:22:57;;;;;;;22.20;5.20;;;21.80;86.70;;;22.09;54.65;95489.88;5026013;28;20495;-58
2022/10/01 09:25:25;;;;;;;5.87;3.30;;;21.70;87.70;;;22.08;55.08;95500.78;5024236;28;20464;-57
2022/10/01 09:27:53;;;;;;;8.43;3.50;;;21.60;87.90;;;22.08;54.80;95511.50;5024214;28;20457;-56
2022/10/01 09:30:22;;;;;;;5.03;3.77;;;21.60;89.00;;;22.08;55.39;95500.78;5024082;28;20465;-55
2022/10/01 09:32:54;;;;;;;8.50;4.33;;;21.60;89.70;;;22.08;55.23;95515.00;5022953;28;20527;-57
2022/10/01 09:35:31;;;;;;;15.70;4.30;;;21.60;90.10;;;22.10;55.28;95510.28;5024300;28;20909;-56
2022/10/01 09:38:01;;;;;;;10.97;4.60;;;21.60;90.50;;;22.09;55.56;95508.63;5020803;28;20826;-56
2022/10/01 09:40:34;;;;;;;21.13;5.37;;;21.70;90.80;;;22.07;56.63;95494.59;5025343;28;20992;-58
2022/10/01 09:43:02;;;;;;;12.47;5.70;;;21.60;91.30;;;22.06;56.22;95495.63;5025340;28;20567;-58
2022/10/01 09:45:29;;;;;;;4.97;4.23;;;21.60;91.70;;;22.06;56.66;95479.56;5025938;28;20473;-61
2022/10/01 09:48:04;;;;;;;10.37;4.20;;;21.60;91.80;;;22.06;56.44;95476.03;5026108;28;20510;-57
2022/10/01 09:50:35;;;;;;;22.53;6.10;;;21.60;91.80;;;22.05;56.57;95459.13;5023088;28;20487;-56
2022/10/01 09:53:02;;;;;;;13.30;7.10;;;21.60;92.50;;;22.02;56.62;95448.81;5025694;28;20456;-54
2022/10/01 09:55:33;;;;;;;9.20;4.33;;;21.60;92.30;;;22.01;56.68;95431.06;5025891;28;20616;-56
2022/10/01 09:58:03;;;;;;;9.10;4.90;;;21.60;92.30;;;22.01;56.65;95431.06;5025465;28;20448;-56
2022/10/01 10:00:31;;;;;;;18.80;6.77;;;21.60;92.60;;;22.03;56.74;95445.94;5025717;28;20465;-55
2022/10/01 10:03:00;;;;;;;4.40;3.63;;;21.60;92.80;;;22.06;56.88;95458.13;5022365;28;20460;-57
2022/10/01 10:05:28;;;;;;;5.83;4.37;;;21.60;92.80;;;22.06;56.69;95460.81;5025147;28;20555;-58
2022/10/01 10:07:57;;;;;;;11.03;3.87;;;21.60;92.80;;;22.05;56.29;95461.81;5025931;28;20460;-55
2022/10/01 10:10:28;;;;;;;7.07;2.73;;;21.60;92.50;;;22.05;56.75;95443.06;5025843;28;20468;-59
2022/10/01 10:12:57;;;;;;;5.73;3.50;;;21.60;92.40;;;22.08;56.50;95418.56;5026077;28;20455;-59
2022/10/01 10:15:25;;;;;;;10.27;3.87;;;21.70;92.60;;;22.12;56.56;95409.09;5022153;28;20500;-58
2022/10/01 10:17:54;;;;;;;11.43;3.67;;;21.70;93.10;;;22.18;56.77;95428.91;5025730;28;20456;-57
2022/10/01 10:20:30;;;;;;;11.53;3.20;;;21.70;93.20;;;22.25;56.96;95437.00;5025492;28;20464;-59
2022/10/01 10:23:08;;;;;;;10.63;3.20;;;21.80;93.40;;;22.29;56.62;95440.91;5024481;28;20571;-58
2022/10/01 10:25:35;;;;;;;6.17;2.73;;;21.80;93.30;;;22.30;56.79;95434.53;5029188;28;20468;-56
2022/10/01 10:28:03;;;;;;;6.83;3.17;;;21.80;93.30;;;22.30;57.18;95418.47;5030046;28;20461;-58
2022/10/01 10:30:31;;;;;;;6.97;3.03;;;21.90;93.40;;;22.31;57.26;95426.31;5029848;28;20725;-59